createdAt,value
2022-10-22T00:00:08.470Z,15.24
2022-10-22T00:01:08.477Z,15.26
2022-10-22T00:02:08.450Z,15.28
2022-10-22T00:03:08.499Z,15.23
2022-10-22T00:04:08.435Z,15.20
2022-10-22T00:05:08.434Z,15.20
2022-10-22T00:06:08.438Z,15.15
2022-10-22T00:07:08.422Z,15.17
2022-10-22T00:08:08.413Z,15.15
2022-10-22T00:09:08.457Z,15.20
2022-10-22T00:10:08.397Z,15.15
2022-10-22T00:11:08.374Z,15.26
2022-10-22T00:12:08.373Z,15.17
2022-10-22T00:13:08.401Z,15.17
2022-10-22T00:14:08.347Z,15.15
2022-10-22T00:15:08.357Z,15.13
2022-10-22T00:16:08.341Z,15.11
2022-10-22T00:17:11.631Z,15.11
2022-10-22T00:18:08.325Z,15.15
2022-10-22T00:19:08.347Z,15.13
2022-10-22T00:20:08.318Z,15.13
2022-10-22T00:21:08.307Z,15.17
2022-10-22T00:22:08.297Z,15.21
2022-10-22T00:23:08.311Z,15.12
2022-10-22T00:24:08.307Z,15.23
2022-10-22T00:25:08.284Z,15.11
2022-10-22T00:26:08.273Z,15.15
2022-10-22T00:27:08.289Z,15.13
2022-10-22T00:28:08.253Z,15.17
2022-10-22T00:29:08.253Z,15.13
2022-10-22T00:30:08.245Z,15.13
2022-10-22T00:31:09.267Z,15.12
2022-10-22T00:32:08.226Z,15.13
2022-10-22T00:33:08.222Z,15.21
2022-10-22T00:34:08.214Z,15.13
2022-10-22T00:35:08.210Z,15.19
2022-10-22T00:36:08.226Z,15.24
2022-10-22T00:37:08.189Z,15.19
2022-10-22T00:38:08.196Z,15.27
2022-10-22T00:39:08.181Z,15.19
2022-10-22T00:40:08.185Z,15.26
2022-10-22T00:41:08.161Z,15.26
2022-10-22T00:42:08.137Z,15.23
2022-10-22T00:43:08.146Z,15.27
2022-10-22T00:44:08.141Z,15.19
2022-10-22T00:45:08.137Z,15.26
2022-10-22T00:46:08.134Z,15.31
2022-10-22T00:47:08.121Z,15.24
2022-10-22T00:48:08.097Z,15.31
2022-10-22T00:49:08.109Z,15.24
2022-10-22T00:50:08.102Z,15.20
2022-10-22T00:51:08.110Z,15.26
2022-10-22T00:52:08.081Z,15.23
2022-10-22T00:53:08.074Z,15.24
2022-10-22T00:54:08.081Z,15.27
2022-10-22T00:55:08.099Z,15.20
2022-10-22T00:56:08.069Z,15.28
2022-10-22T00:57:08.082Z,15.21
2022-10-22T00:58:08.018Z,15.21
2022-10-22T01:00:08.061Z,15.20
2022-10-22T01:01:08.036Z,15.27
2022-10-22T01:02:07.994Z,15.33
2022-10-22T01:03:08.008Z,15.27
2022-10-22T01:04:07.977Z,15.21
2022-10-22T01:05:07.990Z,15.24
2022-10-22T01:06:07.982Z,15.21
2022-10-22T01:07:07.962Z,15.24
2022-10-22T01:08:08.010Z,15.27
2022-10-22T01:09:08.006Z,15.24
2022-10-22T01:10:07.932Z,15.20
2022-10-22T01:11:07.929Z,15.27
2022-10-22T01:12:08.920Z,15.17
2022-10-22T01:13:07.909Z,15.19
2022-10-22T01:14:07.897Z,15.24
2022-10-22T01:15:07.981Z,15.17
2022-10-22T01:16:07.913Z,15.23
2022-10-22T01:17:07.922Z,15.20
2022-10-22T01:18:07.866Z,15.15
2022-10-22T01:19:07.896Z,15.24
2022-10-22T01:20:07.895Z,15.21
2022-10-22T01:21:07.910Z,15.26
2022-10-22T01:22:07.890Z,15.17
2022-10-22T01:23:07.856Z,15.13
2022-10-22T01:24:07.849Z,15.21
2022-10-22T01:25:07.872Z,15.17
2022-10-22T01:26:07.893Z,15.19
2022-10-22T01:27:08.853Z,15.17
2022-10-22T01:28:07.824Z,15.15
2022-10-22T01:29:07.794Z,15.19
2022-10-22T01:30:07.781Z,15.19
2022-10-22T01:31:07.793Z,15.21
2022-10-22T01:32:07.771Z,15.20
2022-10-22T01:33:07.759Z,15.19
2022-10-22T01:34:07.748Z,15.17
2022-10-22T01:35:07.753Z,15.15
2022-10-22T01:36:07.906Z,15.17
2022-10-22T01:37:07.946Z,15.19
2022-10-22T01:38:07.770Z,15.23
2022-10-22T01:39:07.709Z,15.27
2022-10-22T01:40:07.713Z,15.26
2022-10-22T01:41:07.691Z,15.23
2022-10-22T01:42:07.707Z,15.19
2022-10-22T01:43:08.027Z,15.19
2022-10-22T01:44:07.850Z,15.15
2022-10-22T01:45:07.837Z,15.24
2022-10-22T01:46:07.686Z,15.24
2022-10-22T01:47:07.819Z,15.15
2022-10-22T01:48:07.709Z,15.15
2022-10-22T01:49:07.681Z,15.13
2022-10-22T01:50:07.626Z,15.17
2022-10-22T01:51:07.628Z,15.12
2022-10-22T01:52:07.769Z,15.24
2022-10-22T01:53:07.834Z,15.24
2022-10-22T01:54:07.639Z,15.15
2022-10-22T01:55:07.670Z,15.19
2022-10-22T01:56:07.766Z,15.17
2022-10-22T01:57:07.777Z,15.19
2022-10-22T01:58:07.661Z,15.12
2022-10-22T01:59:07.696Z,15.13
2022-10-22T02:00:07.682Z,15.23
2022-10-22T02:01:07.721Z,15.09
2022-10-22T02:02:07.725Z,15.19
2022-10-22T02:03:07.811Z,15.12
2022-10-22T02:04:07.621Z,15.13
2022-10-22T02:05:07.555Z,15.19
2022-10-22T02:06:07.601Z,15.17
2022-10-22T02:07:07.632Z,15.24
2022-10-22T02:08:07.835Z,15.19
2022-10-22T02:09:07.781Z,15.11
2022-10-22T02:10:07.576Z,15.15
2022-10-22T02:11:07.557Z,15.05
2022-10-22T02:12:07.476Z,15.13
2022-10-22T02:13:07.594Z,14.94
2022-10-22T02:14:07.644Z,15.03
2022-10-22T02:15:07.553Z,15.11
2022-10-22T02:16:07.533Z,15.05
2022-10-22T02:17:07.534Z,15.06
2022-10-22T02:18:07.529Z,14.95
2022-10-22T02:19:07.426Z,15.03
2022-10-22T02:20:07.441Z,14.98
2022-10-22T02:22:07.502Z,14.95
2022-10-22T02:23:07.443Z,14.95
2022-10-22T02:24:07.457Z,14.88
2022-10-22T02:25:08.493Z,14.93
2022-10-22T02:26:07.389Z,14.95
2022-10-22T02:27:07.438Z,14.99
2022-10-22T02:28:07.439Z,14.99
2022-10-22T02:29:07.365Z,14.90
2022-10-22T02:30:07.558Z,15.01
2022-10-22T02:31:07.498Z,14.93
2022-10-22T02:32:07.425Z,15.03
2022-10-22T02:33:07.348Z,14.93
2022-10-22T02:34:07.389Z,14.91
2022-10-22T02:35:07.525Z,14.93
2022-10-22T02:36:07.519Z,14.86
2022-10-22T02:37:07.396Z,14.95
2022-10-22T02:38:07.381Z,14.84
2022-10-22T02:39:07.674Z,14.94
2022-10-22T02:40:07.401Z,14.94
2022-10-22T02:41:07.325Z,14.91
2022-10-22T02:42:07.389Z,14.88
2022-10-22T02:43:07.427Z,14.95
2022-10-22T02:44:07.273Z,14.98
2022-10-22T02:45:07.276Z,14.94
2022-10-22T02:46:07.237Z,14.93
2022-10-22T02:47:07.341Z,14.88
2022-10-22T02:48:07.376Z,14.88
2022-10-22T02:49:07.233Z,14.87
2022-10-22T02:50:09.603Z,14.86
2022-10-22T02:51:07.256Z,14.81
2022-10-22T02:52:07.207Z,14.86
2022-10-22T02:53:07.210Z,14.83
2022-10-22T02:54:07.212Z,14.83
2022-10-22T02:55:07.193Z,14.87
2022-10-22T02:56:07.192Z,14.93
2022-10-22T02:57:07.222Z,14.86
2022-10-22T02:58:07.210Z,14.88
2022-10-22T02:59:07.168Z,14.84
2022-10-22T03:00:07.191Z,14.88
2022-10-22T03:01:07.181Z,14.88
2022-10-22T03:02:07.183Z,14.90
2022-10-22T03:03:07.168Z,14.84
2022-10-22T03:04:07.115Z,14.83
2022-10-22T03:05:07.402Z,14.75
2022-10-22T03:06:07.143Z,14.91
2022-10-22T03:07:07.133Z,14.83
2022-10-22T03:08:07.273Z,14.86
2022-10-22T03:09:07.177Z,14.75
2022-10-22T03:10:07.087Z,14.75
2022-10-22T03:11:07.069Z,14.80
2022-10-22T03:12:07.131Z,14.80
2022-10-22T03:13:07.098Z,14.68
2022-10-22T03:14:07.187Z,14.74
2022-10-22T03:15:07.110Z,14.71
2022-10-22T03:16:07.050Z,14.68
2022-10-22T03:17:07.046Z,14.80
2022-10-22T03:18:07.093Z,14.72
2022-10-22T03:19:07.018Z,14.71
2022-10-22T03:20:07.034Z,14.68
2022-10-22T03:21:07.009Z,14.72
2022-10-22T03:22:07.034Z,14.65
2022-10-22T03:23:07.338Z,14.62
2022-10-22T03:24:07.143Z,14.67
2022-10-22T03:25:07.079Z,14.61
2022-10-22T03:26:06.958Z,14.61
2022-10-22T03:27:07.038Z,14.68
2022-10-22T03:28:06.965Z,14.61
2022-10-22T03:29:06.961Z,14.65
2022-10-22T03:30:06.987Z,14.64
2022-10-22T03:31:07.152Z,14.62
2022-10-22T03:32:07.094Z,14.61
2022-10-22T03:33:06.930Z,14.67
2022-10-22T03:34:07.098Z,14.61
2022-10-22T03:35:07.934Z,14.67
2022-10-22T03:36:06.978Z,14.61
2022-10-22T03:37:07.076Z,14.62
2022-10-22T03:38:06.894Z,14.65
2022-10-22T03:39:06.879Z,14.62
2022-10-22T03:40:06.913Z,14.65
2022-10-22T03:41:06.965Z,14.64
2022-10-22T03:42:06.943Z,14.65
2022-10-22T03:43:06.859Z,14.60
2022-10-22T03:44:06.814Z,14.64
2022-10-22T03:45:06.865Z,14.69
2022-10-22T03:46:06.820Z,14.64
2022-10-22T03:47:06.842Z,14.61
2022-10-22T03:48:06.874Z,14.65
2022-10-22T03:49:06.910Z,14.62
2022-10-22T03:50:07.072Z,14.57
2022-10-22T03:51:06.795Z,14.60
2022-10-22T03:52:06.815Z,14.68
2022-10-22T03:53:06.801Z,14.67
2022-10-22T03:54:06.798Z,14.74
2022-10-22T03:55:06.809Z,14.72
2022-10-22T03:56:06.841Z,14.64
2022-10-22T03:57:06.782Z,14.69
2022-10-22T03:58:06.852Z,14.64
2022-10-22T03:59:06.817Z,14.65
2022-10-22T04:00:06.753Z,14.67
2022-10-22T04:01:06.734Z,14.57
2022-10-22T04:02:06.849Z,14.61
2022-10-22T04:03:06.697Z,14.65
2022-10-22T04:04:06.906Z,14.60
2022-10-22T04:05:06.675Z,14.64
2022-10-22T04:06:06.658Z,14.69
2022-10-22T04:07:06.629Z,14.72
2022-10-22T04:08:06.650Z,14.81
2022-10-22T04:09:06.862Z,14.80
2022-10-22T04:10:06.730Z,14.80
2022-10-22T04:11:06.693Z,14.78
2022-10-22T04:12:06.747Z,14.74
2022-10-22T04:13:06.702Z,14.83
2022-10-22T04:14:06.605Z,14.81
2022-10-22T04:15:06.701Z,14.83
2022-10-22T04:16:06.662Z,14.80
2022-10-22T04:17:06.833Z,14.87
2022-10-22T04:18:06.690Z,14.86
2022-10-22T04:19:06.628Z,14.78
2022-10-22T04:20:06.653Z,14.78
2022-10-22T04:21:06.667Z,14.88
2022-10-22T04:22:06.684Z,14.86
2022-10-22T04:23:06.576Z,14.88
2022-10-22T04:24:06.613Z,14.87
2022-10-22T04:25:06.562Z,14.86
2022-10-22T04:26:06.541Z,14.78
2022-10-22T04:27:06.605Z,14.87
2022-10-22T04:28:06.605Z,14.78
2022-10-22T04:29:07.433Z,14.72
2022-10-22T04:30:06.549Z,14.83
2022-10-22T04:31:06.684Z,14.75
2022-10-22T04:32:06.681Z,14.84
2022-10-22T04:33:06.553Z,14.71
2022-10-22T04:34:06.478Z,14.78
2022-10-22T04:35:06.517Z,14.71
2022-10-22T04:36:06.461Z,14.71
2022-10-22T04:37:06.485Z,14.75
2022-10-22T04:38:06.617Z,14.72
2022-10-22T04:39:06.472Z,14.69
2022-10-22T04:40:06.542Z,14.71
2022-10-22T04:41:06.490Z,14.72
2022-10-22T04:42:06.488Z,14.68
2022-10-22T04:43:06.396Z,14.64
2022-10-22T04:44:06.486Z,14.65
2022-10-22T04:45:06.617Z,14.65
2022-10-22T04:46:07.491Z,14.67
2022-10-22T04:47:07.433Z,14.69
2022-10-22T04:48:06.433Z,14.61
2022-10-22T04:49:06.333Z,14.67
2022-10-22T04:50:06.321Z,14.67
2022-10-22T04:51:06.405Z,14.67
2022-10-22T04:52:06.464Z,14.60
2022-10-22T04:53:06.430Z,14.62
2022-10-22T04:54:07.398Z,14.62
2022-10-22T04:55:06.367Z,14.61
2022-10-22T04:56:06.445Z,14.57
2022-10-22T04:57:06.378Z,14.57
2022-10-22T04:58:06.348Z,14.52
2022-10-22T04:59:06.314Z,14.61
2022-10-22T05:00:06.286Z,14.49
2022-10-22T05:01:06.339Z,14.46
2022-10-22T05:02:06.245Z,14.57
2022-10-22T05:03:06.289Z,14.54
2022-10-22T05:04:06.329Z,14.49
2022-10-22T05:05:06.260Z,14.56
2022-10-22T05:06:06.442Z,14.44
2022-10-22T05:07:06.273Z,14.47
2022-10-22T05:08:06.266Z,14.50
2022-10-22T05:09:06.207Z,14.42
2022-10-22T05:10:06.181Z,14.49
2022-10-22T05:11:06.216Z,14.43
2022-10-22T05:12:06.229Z,14.38
2022-10-22T05:13:06.258Z,14.39
2022-10-22T05:14:06.224Z,14.39
2022-10-22T05:15:06.181Z,14.50
2022-10-22T05:16:06.311Z,14.34
2022-10-22T05:17:06.177Z,14.37
2022-10-22T05:18:06.163Z,14.35
2022-10-22T05:19:06.113Z,14.39
2022-10-22T05:20:06.128Z,14.32
2022-10-22T05:21:06.209Z,14.42
2022-10-22T05:22:06.184Z,14.46
2022-10-22T05:23:06.120Z,14.44
2022-10-22T05:24:06.104Z,14.34
2022-10-22T05:25:06.070Z,14.43
2022-10-22T05:26:06.317Z,14.46
2022-10-22T05:27:06.094Z,14.44
2022-10-22T05:28:06.161Z,14.47
2022-10-22T05:29:06.080Z,14.34
2022-10-22T05:30:06.142Z,14.47
2022-10-22T05:31:06.222Z,14.46
2022-10-22T05:32:06.092Z,14.47
2022-10-22T05:33:06.024Z,14.60
2022-10-22T05:34:06.072Z,14.52
2022-10-22T05:35:06.075Z,14.52
2022-10-22T05:36:06.029Z,14.47
2022-10-22T05:37:07.073Z,14.53
2022-10-22T05:38:07.041Z,14.44
2022-10-22T05:39:06.080Z,14.50
2022-10-22T05:40:19.412Z,14.54
2022-10-22T05:41:08.036Z,14.53
2022-10-22T05:42:06.117Z,14.64
2022-10-22T05:43:05.993Z,14.61
2022-10-22T05:44:05.997Z,14.65
2022-10-22T05:45:06.037Z,14.69
2022-10-22T05:46:06.002Z,14.62
2022-10-22T05:47:06.007Z,14.68
2022-10-22T05:48:06.036Z,14.67
2022-10-22T05:49:05.972Z,14.72
2022-10-22T05:50:06.172Z,14.72
2022-10-22T05:51:06.028Z,14.65
2022-10-22T05:52:05.938Z,14.69
2022-10-22T05:53:05.963Z,14.78
2022-10-22T05:54:05.978Z,14.74
2022-10-22T05:55:06.020Z,14.86
2022-10-22T05:56:05.872Z,14.80
2022-10-22T05:57:05.961Z,14.74
2022-10-22T05:58:05.961Z,14.72
2022-10-22T05:59:05.948Z,14.80
2022-10-22T06:00:05.873Z,14.80
2022-10-22T06:01:05.849Z,14.71
2022-10-22T06:02:05.939Z,14.74
2022-10-22T06:03:05.886Z,14.78
2022-10-22T06:04:05.878Z,14.80
2022-10-22T06:05:05.842Z,14.93
2022-10-22T06:06:05.791Z,14.90
2022-10-22T06:07:05.885Z,14.93
2022-10-22T06:08:05.762Z,14.86
2022-10-22T06:09:06.122Z,14.88
2022-10-22T06:10:05.885Z,14.84
2022-10-22T06:11:05.801Z,14.90
2022-10-22T06:12:05.780Z,14.88
2022-10-22T06:13:05.857Z,14.87
2022-10-22T06:14:05.998Z,14.87
2022-10-22T06:15:05.907Z,14.98
2022-10-22T06:16:05.750Z,14.86
2022-10-22T06:17:05.875Z,14.93
2022-10-22T06:18:05.722Z,14.86
2022-10-22T06:19:05.834Z,14.93
2022-10-22T06:21:06.729Z,14.90
2022-10-22T06:22:05.741Z,14.95
2022-10-22T06:23:05.741Z,14.95
2022-10-22T06:24:05.813Z,14.98
2022-10-22T06:25:05.684Z,14.94
2022-10-22T06:26:05.708Z,14.86
2022-10-22T06:27:05.664Z,14.99
2022-10-22T06:28:05.749Z,14.95
2022-10-22T06:29:05.758Z,14.95
2022-10-22T06:30:05.689Z,15.03
2022-10-22T06:31:05.772Z,15.02
2022-10-22T06:32:05.658Z,14.87
2022-10-22T06:33:05.578Z,14.98
2022-10-22T06:34:05.605Z,14.98
2022-10-22T06:35:05.821Z,14.86
2022-10-22T06:36:07.636Z,14.87
2022-10-22T06:37:05.737Z,14.83
2022-10-22T06:38:05.535Z,14.88
2022-10-22T06:39:05.566Z,14.84
2022-10-22T06:40:05.552Z,14.87
2022-10-22T06:41:05.516Z,14.90
2022-10-22T06:42:05.569Z,14.88
2022-10-22T06:43:05.516Z,14.94
2022-10-22T06:44:05.593Z,14.88
2022-10-22T06:45:05.483Z,14.86
2022-10-22T06:46:05.508Z,14.81
2022-10-22T06:47:05.557Z,14.90
2022-10-22T06:48:05.504Z,15.02
2022-10-22T06:49:05.521Z,14.90
2022-10-22T06:50:05.558Z,14.81
2022-10-22T06:51:05.430Z,14.86
2022-10-22T06:52:05.432Z,14.86
2022-10-22T06:53:05.440Z,14.90
2022-10-22T06:54:05.413Z,14.94
2022-10-22T06:55:05.404Z,14.94
2022-10-22T06:56:05.384Z,14.91
2022-10-22T06:57:05.475Z,14.80
2022-10-22T06:58:05.404Z,14.90
2022-10-22T06:59:05.777Z,14.95
2022-10-22T07:00:05.368Z,14.83
2022-10-22T07:01:05.411Z,14.90
2022-10-22T07:02:05.353Z,15.01
2022-10-22T07:03:05.360Z,14.88
2022-10-22T07:04:05.361Z,14.95
2022-10-22T07:05:05.341Z,14.88
2022-10-22T07:06:05.316Z,14.90
2022-10-22T07:07:05.309Z,14.88
2022-10-22T07:08:06.308Z,14.84
2022-10-22T07:09:06.146Z,14.71
2022-10-22T07:10:05.299Z,14.69
2022-10-22T07:11:05.293Z,14.75
2022-10-22T07:12:05.294Z,14.84
2022-10-22T07:13:05.271Z,14.72
2022-10-22T07:14:05.279Z,14.87
2022-10-22T07:15:05.255Z,14.95
2022-10-22T07:16:05.250Z,15.06
2022-10-22T07:17:05.240Z,15.48
2022-10-22T07:18:05.276Z,15.51
2022-10-22T07:19:05.224Z,16.20
2022-10-22T07:20:05.217Z,16.88
2022-10-22T07:21:05.229Z,17.17
2022-10-22T07:22:05.195Z,17.55
2022-10-22T07:23:05.241Z,17.87
2022-10-22T07:24:05.197Z,18.27
2022-10-22T07:25:07.263Z,18.33
2022-10-22T07:26:05.206Z,18.28
2022-10-22T07:27:08.169Z,18.36
2022-10-22T07:28:06.165Z,18.49
2022-10-22T07:29:05.156Z,18.83
2022-10-22T07:30:05.220Z,18.99
2022-10-22T07:31:05.209Z,19.01
2022-10-22T07:32:05.139Z,19.08
2022-10-22T07:33:05.149Z,19.11
2022-10-22T07:34:05.118Z,19.35
2022-10-22T07:35:05.106Z,19.68
2022-10-22T07:36:05.130Z,19.97
2022-10-22T07:37:05.136Z,20.02
2022-10-22T07:38:05.088Z,20.13
2022-10-22T07:39:05.068Z,19.80
2022-10-22T07:40:05.072Z,20.20
2022-10-22T07:41:05.082Z,20.42
2022-10-22T07:42:06.059Z,20.49
2022-10-22T07:43:05.070Z,20.33
2022-10-22T07:44:05.204Z,20.50
2022-10-22T07:45:05.064Z,20.47
2022-10-22T07:46:05.059Z,20.61
2022-10-22T07:47:05.035Z,20.90
2022-10-22T07:48:05.039Z,20.84
2022-10-22T07:49:05.018Z,20.68
2022-10-22T07:50:05.008Z,20.65
2022-10-22T07:51:05.009Z,20.69
2022-10-22T07:52:04.996Z,20.71
2022-10-22T07:53:04.984Z,20.31
2022-10-22T07:54:04.979Z,20.46
2022-10-22T07:55:04.979Z,20.20
2022-10-22T07:56:04.963Z,19.25
2022-10-22T07:57:05.020Z,18.73
2022-10-22T07:58:04.951Z,18.00
2022-10-22T07:59:04.959Z,17.33
2022-10-22T08:00:04.938Z,16.93
2022-10-22T08:01:04.977Z,16.52
2022-10-22T08:02:04.947Z,16.48
2022-10-22T08:03:04.935Z,16.40
2022-10-22T08:04:04.904Z,16.30
2022-10-22T08:05:04.919Z,16.27
2022-10-22T08:06:04.927Z,16.25
2022-10-22T08:07:04.884Z,16.23
2022-10-22T08:08:04.883Z,16.04
2022-10-22T08:09:04.924Z,15.89
2022-10-22T08:10:04.879Z,15.93
2022-10-22T08:11:04.878Z,15.96
2022-10-22T08:12:04.868Z,15.82
2022-10-22T08:13:04.863Z,15.81
2022-10-22T08:14:04.870Z,15.76
2022-10-22T08:15:04.839Z,15.74
2022-10-22T08:16:04.833Z,15.64
2022-10-22T08:17:04.883Z,15.59
2022-10-22T08:18:04.825Z,15.66
2022-10-22T08:19:04.803Z,15.75
2022-10-22T08:20:04.806Z,15.60
2022-10-22T08:21:04.830Z,15.63
2022-10-22T08:22:04.842Z,15.59
2022-10-22T08:23:04.799Z,15.60
2022-10-22T08:24:04.779Z,15.66
2022-10-22T08:25:04.762Z,15.49
2022-10-22T08:26:04.760Z,15.57
2022-10-22T08:27:04.750Z,15.61
2022-10-22T08:28:04.763Z,15.59
2022-10-22T08:29:04.754Z,15.52
2022-10-22T08:30:04.727Z,15.52
2022-10-22T08:31:04.736Z,15.57
2022-10-22T08:32:04.720Z,15.64
2022-10-22T08:33:04.759Z,15.49
2022-10-22T08:34:04.706Z,15.56
2022-10-22T08:35:04.691Z,15.68
2022-10-22T08:36:04.691Z,15.67
2022-10-22T08:37:04.686Z,15.64
2022-10-22T08:38:04.670Z,15.68
2022-10-22T08:39:04.678Z,15.72
2022-10-22T08:40:04.658Z,15.68
2022-10-22T08:41:04.657Z,15.68
2022-10-22T08:42:04.650Z,15.70
2022-10-22T08:43:04.642Z,15.82
2022-10-22T08:44:04.640Z,15.78
2022-10-22T08:45:04.618Z,15.79
2022-10-22T08:46:04.614Z,15.74
2022-10-22T08:47:04.606Z,15.75
2022-10-22T08:48:04.595Z,15.81
2022-10-22T08:49:04.628Z,15.75
2022-10-22T08:50:04.595Z,15.85
2022-10-22T08:51:04.598Z,15.84
2022-10-22T08:52:04.577Z,15.97
2022-10-22T08:53:05.667Z,15.96
2022-10-22T08:54:05.715Z,15.99
2022-10-22T08:55:04.788Z,15.88
2022-10-22T08:56:06.699Z,15.94
2022-10-22T08:57:05.328Z,15.94
2022-10-22T08:58:06.299Z,15.84
2022-10-22T08:59:04.514Z,15.89
2022-10-22T09:00:04.512Z,15.93
2022-10-22T09:01:04.505Z,15.93
2022-10-22T09:02:04.503Z,15.99
2022-10-22T09:03:04.482Z,15.93
2022-10-22T09:04:04.490Z,15.96
2022-10-22T09:05:07.630Z,15.94
2022-10-22T09:06:07.342Z,15.94
2022-10-22T09:07:04.470Z,15.86
2022-10-22T09:08:04.455Z,15.97
2022-10-22T09:09:04.494Z,15.94
2022-10-22T09:10:04.438Z,15.92
2022-10-22T09:11:05.430Z,15.92
2022-10-22T09:12:04.420Z,15.92
2022-10-22T09:13:04.427Z,15.93
2022-10-22T09:14:04.506Z,16.00
2022-10-22T09:15:04.401Z,15.99
2022-10-22T09:16:04.391Z,16.12
2022-10-22T09:17:04.388Z,16.04
2022-10-22T09:18:04.373Z,16.12
2022-10-22T09:19:04.382Z,16.00
2022-10-22T09:20:04.360Z,16.01
2022-10-22T09:21:04.490Z,15.97
2022-10-22T09:22:04.346Z,16.20
2022-10-22T09:23:04.346Z,16.15
2022-10-22T09:24:04.343Z,16.33
2022-10-22T09:25:04.332Z,16.38
2022-10-22T09:26:04.321Z,16.38
2022-10-22T09:27:04.313Z,16.33
2022-10-22T09:28:04.301Z,16.30
2022-10-22T09:29:04.302Z,16.27
2022-10-22T09:30:04.291Z,16.34
2022-10-22T09:31:04.312Z,16.37
2022-10-22T09:32:04.278Z,16.53
2022-10-22T09:33:04.271Z,16.63
2022-10-22T09:34:04.256Z,16.53
2022-10-22T09:35:04.261Z,16.55
2022-10-22T09:36:04.255Z,16.55
2022-10-22T09:37:04.250Z,16.59
2022-10-22T09:38:04.234Z,16.73
2022-10-22T09:39:04.304Z,17.08
2022-10-22T09:40:04.217Z,17.06
2022-10-22T09:41:04.344Z,17.10
2022-10-22T09:42:04.210Z,17.14
2022-10-22T09:43:04.190Z,16.93
2022-10-22T09:44:04.186Z,16.83
2022-10-22T09:45:04.182Z,16.78
2022-10-22T09:46:04.172Z,16.80
2022-10-22T09:47:04.167Z,16.90
2022-10-22T09:48:04.145Z,16.81
2022-10-22T09:49:04.146Z,16.83
2022-10-22T09:50:04.143Z,16.81
2022-10-22T09:51:04.198Z,16.81
2022-10-22T09:52:04.138Z,16.96
2022-10-22T09:53:04.127Z,16.92
2022-10-22T09:54:04.125Z,16.95
2022-10-22T09:55:04.089Z,17.00
2022-10-22T09:56:04.086Z,17.10
2022-10-22T09:57:04.089Z,17.06
2022-10-22T09:58:04.077Z,17.06
2022-10-22T09:59:04.053Z,17.08
2022-10-22T10:00:04.062Z,17.04
2022-10-22T10:01:04.049Z,17.06
2022-10-22T10:02:13.745Z,18.03
2022-10-22T10:03:06.080Z,18.03
2022-10-22T10:04:08.383Z,18.29
2022-10-22T10:05:06.028Z,18.40
2022-10-22T10:06:06.015Z,18.58
2022-10-22T10:07:04.022Z,18.17
2022-10-22T10:08:04.009Z,17.92
2022-10-22T10:09:04.077Z,17.82
2022-10-22T10:10:03.994Z,17.79
2022-10-22T10:11:03.987Z,17.64
2022-10-22T10:12:03.994Z,17.67
2022-10-22T10:13:03.973Z,17.70
2022-10-22T10:14:03.977Z,17.71
2022-10-22T10:15:03.965Z,17.69
2022-10-22T10:16:03.962Z,17.66
2022-10-22T10:17:03.973Z,17.53
2022-10-22T10:18:03.953Z,17.62
2022-10-22T10:19:03.946Z,17.57
2022-10-22T10:20:04.384Z,19.02
2022-10-22T10:21:04.012Z,19.70
2022-10-22T10:22:03.937Z,19.40
2022-10-22T10:23:03.907Z,19.14
2022-10-22T10:24:03.909Z,19.15
2022-10-22T10:25:03.905Z,18.90
2022-10-22T10:26:03.889Z,19.08
2022-10-22T10:27:03.897Z,19.11
2022-10-22T10:28:03.881Z,19.69
2022-10-22T10:29:03.906Z,19.94
2022-10-22T10:30:03.867Z,19.90
2022-10-22T10:31:03.862Z,21.11
2022-10-22T10:32:03.850Z,22.17
2022-10-22T10:33:03.842Z,23.01
2022-10-22T10:34:03.849Z,23.40
2022-10-22T10:35:03.829Z,23.61
2022-10-22T10:36:03.812Z,24.07
2022-10-22T10:37:03.823Z,24.45
2022-10-22T10:38:03.825Z,25.06
2022-10-22T10:39:03.789Z,25.19
2022-10-22T10:40:03.802Z,25.37
2022-10-22T10:41:03.786Z,25.31
2022-10-22T10:42:03.773Z,25.02
2022-10-22T10:43:03.789Z,25.07
2022-10-22T10:44:03.765Z,25.53
2022-10-22T10:45:03.756Z,25.46
2022-10-22T10:46:03.762Z,25.44
2022-10-22T10:47:03.741Z,25.64
2022-10-22T10:48:03.762Z,25.38
2022-10-22T10:49:03.737Z,25.32
2022-10-22T10:50:03.725Z,25.38
2022-10-22T10:51:03.713Z,25.07
2022-10-22T10:52:03.716Z,24.73
2022-10-22T10:53:03.729Z,24.56
2022-10-22T10:54:03.697Z,24.90
2022-10-22T10:55:03.726Z,25.09
2022-10-22T10:56:03.714Z,25.64
2022-10-22T10:57:03.717Z,25.87
2022-10-22T10:58:03.681Z,26.36
2022-10-22T10:59:03.707Z,26.65
2022-10-22T11:00:03.665Z,26.99
2022-10-22T11:01:03.663Z,26.73
2022-10-22T11:02:03.645Z,26.59
2022-10-22T11:03:03.653Z,26.40
2022-10-22T11:04:03.671Z,26.22
2022-10-22T11:05:03.633Z,26.27
2022-10-22T11:06:03.626Z,26.50
2022-10-22T11:07:10.980Z,26.17
2022-10-22T11:08:05.622Z,25.87
2022-10-22T11:09:03.715Z,25.68
2022-10-22T11:10:03.613Z,25.94
2022-10-22T11:11:03.708Z,26.25
2022-10-22T11:12:03.601Z,26.31
2022-10-22T11:13:03.619Z,26.24
2022-10-22T11:14:03.594Z,26.44
2022-10-22T11:15:03.581Z,26.50
2022-10-22T11:16:03.573Z,26.32
2022-10-22T11:17:03.564Z,26.15
2022-10-22T11:18:03.542Z,25.53
2022-10-22T11:19:03.564Z,25.67
2022-10-22T11:20:03.545Z,25.68
2022-10-22T11:21:03.524Z,25.82
2022-10-22T11:22:03.524Z,26.61
2022-10-22T11:23:21.551Z,26.94
2022-10-22T11:24:05.525Z,26.94
2022-10-22T11:25:03.537Z,27.04
2022-10-22T11:26:03.513Z,26.91
2022-10-22T11:27:03.492Z,26.80
2022-10-22T11:28:09.160Z,26.99
2022-10-22T11:29:04.486Z,27.02
2022-10-22T11:30:03.473Z,26.81
2022-10-22T11:31:03.477Z,26.31
2022-10-22T11:32:03.473Z,26.54
2022-10-22T11:33:03.457Z,26.35
2022-10-22T11:34:09.995Z,26.36
2022-10-22T11:35:05.447Z,26.37
2022-10-22T11:36:03.458Z,25.74
2022-10-22T11:37:03.440Z,25.01
2022-10-22T11:38:04.429Z,25.06
2022-10-22T11:39:03.426Z,25.32
2022-10-22T11:40:03.429Z,25.46
2022-10-22T11:41:03.425Z,25.25
2022-10-22T11:42:03.408Z,25.44
2022-10-22T11:43:03.399Z,24.79
2022-10-22T11:44:03.394Z,23.71
2022-10-22T11:45:03.388Z,23.11
2022-10-22T11:46:03.428Z,23.42
2022-10-22T11:47:03.369Z,22.78
2022-10-22T11:48:03.385Z,22.28
2022-10-22T11:49:03.357Z,21.64
2022-10-22T11:50:03.359Z,21.27
2022-10-22T11:51:03.356Z,20.65
2022-10-22T11:52:05.007Z,20.38
2022-10-22T11:53:03.363Z,20.23
2022-10-22T11:54:03.335Z,19.94
2022-10-22T11:55:03.314Z,19.76
2022-10-22T11:56:03.308Z,19.32
2022-10-22T11:57:03.309Z,19.05
2022-10-22T11:58:03.292Z,19.13
2022-10-22T11:59:03.296Z,19.02
2022-10-22T12:00:03.272Z,19.11
2022-10-22T12:01:03.276Z,19.10
2022-10-22T12:02:03.286Z,19.29
2022-10-22T12:03:03.261Z,19.87
2022-10-22T12:04:03.280Z,19.83
2022-10-22T12:05:03.249Z,19.70
2022-10-22T12:06:03.233Z,19.86
2022-10-22T12:07:03.240Z,20.23
2022-10-22T12:08:03.316Z,20.16
2022-10-22T12:09:03.294Z,21.19
2022-10-22T12:10:03.217Z,21.63
2022-10-22T12:11:03.224Z,21.27
2022-10-22T12:12:03.197Z,20.79
2022-10-22T12:13:03.201Z,20.53
2022-10-22T12:14:03.194Z,20.24
2022-10-22T12:15:03.183Z,20.10
2022-10-22T12:16:03.180Z,19.94
2022-10-22T12:17:03.167Z,19.78
2022-10-22T12:18:03.238Z,19.47
2022-10-22T12:19:03.161Z,19.46
2022-10-22T12:20:03.291Z,19.55
2022-10-22T12:21:03.168Z,19.40
2022-10-22T12:22:03.269Z,19.60
2022-10-22T12:23:03.144Z,19.60
2022-10-22T12:24:03.124Z,20.39
2022-10-22T12:25:03.131Z,21.21
2022-10-22T12:26:03.108Z,21.91
2022-10-22T12:27:03.112Z,22.38
2022-10-22T12:28:03.098Z,22.29
2022-10-22T12:29:03.172Z,21.64
2022-10-22T12:30:03.098Z,21.61
2022-10-22T12:31:03.108Z,21.95
2022-10-22T12:32:03.080Z,22.54
2022-10-22T12:33:03.069Z,23.14
2022-10-22T12:34:03.062Z,23.40
2022-10-22T12:35:03.049Z,23.67
2022-10-22T12:36:03.056Z,23.77
2022-10-22T12:37:03.041Z,24.17
2022-10-22T12:38:03.028Z,24.27
2022-10-22T12:39:03.020Z,23.98
2022-10-22T12:40:03.022Z,23.45
2022-10-22T12:41:03.004Z,24.07
2022-10-22T12:42:03.066Z,23.52
2022-10-22T12:43:03.039Z,23.47
2022-10-22T12:44:03.048Z,23.52
2022-10-22T12:45:02.985Z,23.50
2022-10-22T12:46:02.968Z,22.87
2022-10-22T12:47:02.968Z,22.12
2022-10-22T12:48:02.985Z,21.54
2022-10-22T12:49:02.956Z,21.36
2022-10-22T12:50:02.946Z,22.37
2022-10-22T12:51:02.969Z,23.02
2022-10-22T12:52:02.928Z,23.57
2022-10-22T12:53:03.944Z,23.31
2022-10-22T12:54:02.925Z,23.02
2022-10-22T12:55:03.944Z,22.43